SAS454 EKCH-ENCN
Flight info
| Callsign | SAS454 |
|---|---|
| Flight time | 0h 47m |
| Altitude | 32000 |
| Route | GOLGA DCT LAGUM L621 AMSEV |
| Aircraft | B738/M-SDE2E3FGHIRWXY/LB1 |
Departure
| Time | 2026-05-05 05:43 |
|---|---|
| Airport | Copenhagen Kastrup Airport (EKCH) |
Arrival
| Time | 2026-05-05 06:30 |
|---|---|
| Airport | Kristiansand Airport (ENCN) |
| Time | Latitude | Longitude | Altitude | Speed | Heading |
|---|---|---|---|---|---|
| 2026-05-05 05:08 | 55.62710 | 12.64455 | 25 ft | 0 kts | 102° |
| 2026-05-05 05:34 | 55.62714 | 12.64421 | 23 ft | 4 kts | 97° |
| 2026-05-05 05:34 | 55.62715 | 12.64375 | 23 ft | 4 kts | 75° |
| 2026-05-05 05:34 | 55.62703 | 12.64343 | 28 ft | 2 kts | 24° |
| 2026-05-05 05:35 | 55.62680 | 12.64325 | 25 ft | 4 kts | 23° |
| 2026-05-05 05:35 | 55.62655 | 12.64307 | 27 ft | 4 kts | 23° |
| 2026-05-05 05:35 | 55.62631 | 12.64287 | 28 ft | 4 kts | 27° |
| 2026-05-05 05:35 | 55.62609 | 12.64265 | 25 ft | 4 kts | 40° |
| 2026-05-05 05:36 | 55.62597 | 12.64230 | 26 ft | 4 kts | 93° |
| 2026-05-05 05:36 | 55.62603 | 12.64185 | 27 ft | 4 kts | 120° |
| 2026-05-05 05:36 | 55.62617 | 12.64147 | 25 ft | 4 kts | 123° |
| 2026-05-05 05:36 | 55.62631 | 12.64111 | 28 ft | 2 kts | 123° |
| 2026-05-05 05:37 | 55.62631 | 12.64109 | 28 ft | 0 kts | 123° |
| 2026-05-05 05:38 | 55.62626 | 12.64123 | 24 ft | 4 kts | 122° |
| 2026-05-05 05:38 | 55.62607 | 12.64177 | 23 ft | 5 kts | 121° |
| 2026-05-05 05:39 | 55.62588 | 12.64234 | 23 ft | 5 kts | 122° |
| 2026-05-05 05:39 | 55.62566 | 12.64296 | 24 ft | 7 kts | 122° |
| 2026-05-05 05:39 | 55.62534 | 12.64384 | 23 ft | 10 kts | 123° |
| 2026-05-05 05:39 | 55.62489 | 12.64475 | 23 ft | 10 kts | 155° |
| 2026-05-05 05:40 | 55.62421 | 12.64463 | 23 ft | 10 kts | 195° |
| 2026-05-05 05:40 | 55.62356 | 12.64432 | 23 ft | 10 kts | 195° |
| 2026-05-05 05:40 | 55.62289 | 12.64401 | 22 ft | 11 kts | 194° |
| 2026-05-05 05:40 | 55.62203 | 12.64346 | 22 ft | 15 kts | 204° |
| 2026-05-05 05:41 | 55.62113 | 12.64271 | 25 ft | 14 kts | 205° |
| 2026-05-05 05:41 | 55.62027 | 12.64200 | 23 ft | 13 kts | 205° |
| 2026-05-05 05:41 | 55.61945 | 12.64130 | 24 ft | 13 kts | 206° |
| 2026-05-05 05:41 | 55.61864 | 12.64071 | 23 ft | 13 kts | 186° |
| 2026-05-05 05:42 | 55.61778 | 12.64079 | 23 ft | 12 kts | 176° |
| 2026-05-05 05:42 | 55.61694 | 12.64089 | 28 ft | 12 kts | 176° |
| 2026-05-05 05:42 | 55.61612 | 12.64047 | 28 ft | 16 kts | 214° |
| 2026-05-05 05:42 | 55.61471 | 12.63830 | 26 ft | 54 kts | 222° |
| 2026-05-05 05:43 | 55.61008 | 12.63112 | 25 ft | 121 kts | 221° |
| 2026-05-05 05:43 | 55.60232 | 12.61898 | 62 ft | 170 kts | 225° |
| 2026-05-05 05:43 | 55.59376 | 12.60433 | 802 ft | 172 kts | 228° |
| 2026-05-05 05:43 | 55.58533 | 12.58833 | 1495 ft | 186 kts | 230° |
| 2026-05-05 05:44 | 55.57478 | 12.57212 | 1855 ft | 216 kts | 219° |
| 2026-05-05 05:44 | 55.56316 | 12.55344 | 2167 ft | 232 kts | 239° |
| 2026-05-05 05:44 | 55.55921 | 12.52585 | 2578 ft | 242 kts | 278° |
| 2026-05-05 05:44 | 55.56249 | 12.49605 | 3177 ft | 252 kts | 282° |
| 2026-05-05 05:45 | 55.56573 | 12.46542 | 4078 ft | 253 kts | 280° |
| 2026-05-05 05:45 | 55.56866 | 12.43486 | 5110 ft | 251 kts | 278° |
| 2026-05-05 05:45 | 55.57142 | 12.40445 | 6048 ft | 251 kts | 277° |
| 2026-05-05 05:45 | 55.57412 | 12.37389 | 6920 ft | 253 kts | 277° |
| 2026-05-05 05:46 | 55.57855 | 12.34413 | 7722 ft | 259 kts | 295° |
| 2026-05-05 05:46 | 55.59067 | 12.31945 | 8525 ft | 271 kts | 320° |
| 2026-05-05 05:46 | 55.60786 | 12.30571 | 9330 ft | 284 kts | 343° |
| 2026-05-05 05:46 | 55.62766 | 12.30088 | 10110 ft | 291 kts | 348° |
| 2026-05-05 05:47 | 55.64839 | 12.29731 | 10461 ft | 311 kts | 349° |
| 2026-05-05 05:47 | 55.67078 | 12.29360 | 10646 ft | 335 kts | 349° |
| 2026-05-05 05:47 | 55.69473 | 12.28953 | 10886 ft | 356 kts | 349° |
| 2026-05-05 05:47 | 55.71972 | 12.28509 | 11435 ft | 364 kts | 349° |
| 2026-05-05 05:48 | 55.74505 | 12.28044 | 12130 ft | 368 kts | 349° |
| 2026-05-05 05:48 | 55.77055 | 12.27519 | 12854 ft | 369 kts | 344° |
| 2026-05-05 05:48 | 55.79414 | 12.25923 | 13540 ft | 361 kts | 324° |
| 2026-05-05 05:48 | 55.81552 | 12.23581 | 14236 ft | 363 kts | 323° |
| 2026-05-05 05:49 | 55.83711 | 12.21212 | 14842 ft | 367 kts | 323° |
| 2026-05-05 05:49 | 55.85898 | 12.18831 | 15462 ft | 371 kts | 323° |
| 2026-05-05 05:49 | 55.88117 | 12.16432 | 16091 ft | 374 kts | 323° |
| 2026-05-05 05:49 | 55.90356 | 12.14023 | 16714 ft | 378 kts | 323° |
| 2026-05-05 05:50 | 55.92620 | 12.11591 | 17322 ft | 381 kts | 323° |
| 2026-05-05 05:50 | 55.94903 | 12.09138 | 17925 ft | 385 kts | 323° |
| 2026-05-05 05:50 | 55.97212 | 12.06656 | 18473 ft | 389 kts | 323° |
| 2026-05-05 05:50 | 55.99532 | 12.04159 | 19031 ft | 391 kts | 323° |
| 2026-05-05 05:51 | 56.01870 | 12.01639 | 19578 ft | 393 kts | 323° |
| 2026-05-05 05:51 | 56.04227 | 11.99103 | 20104 ft | 397 kts | 324° |
| 2026-05-05 05:51 | 56.06625 | 11.96627 | 20613 ft | 400 kts | 325° |
| 2026-05-05 05:51 | 56.09065 | 11.94168 | 21101 ft | 404 kts | 325° |
| 2026-05-05 05:52 | 56.11525 | 11.91701 | 21569 ft | 407 kts | 325° |
| 2026-05-05 05:52 | 56.13975 | 11.89236 | 22026 ft | 410 kts | 325° |
| 2026-05-05 05:52 | 56.16470 | 11.86713 | 22486 ft | 413 kts | 325° |
| 2026-05-05 05:52 | 56.18985 | 11.84157 | 22933 ft | 416 kts | 325° |
| 2026-05-05 05:53 | 56.21513 | 11.81579 | 23371 ft | 420 kts | 325° |
| 2026-05-05 05:53 | 56.24060 | 11.78977 | 23751 ft | 423 kts | 325° |
| 2026-05-05 05:53 | 56.26626 | 11.76351 | 24134 ft | 425 kts | 325° |
| 2026-05-05 05:53 | 56.29200 | 11.73714 | 24538 ft | 427 kts | 325° |
| 2026-05-05 05:54 | 56.31784 | 11.71060 | 24914 ft | 429 kts | 324° |
| 2026-05-05 05:54 | 56.34196 | 11.67981 | 25307 ft | 420 kts | 309° |
| 2026-05-05 05:54 | 56.36094 | 11.64050 | 25855 ft | 413 kts | 306° |
| 2026-05-05 05:54 | 56.37951 | 11.60105 | 26413 ft | 411 kts | 306° |
| 2026-05-05 05:55 | 56.39808 | 11.56190 | 26897 ft | 411 kts | 306° |
| 2026-05-05 05:55 | 56.41672 | 11.52287 | 27413 ft | 409 kts | 306° |
| 2026-05-05 05:55 | 56.43528 | 11.48417 | 27918 ft | 407 kts | 306° |
| 2026-05-05 05:55 | 56.45394 | 11.44530 | 27921 ft | 411 kts | 306° |
| 2026-05-05 05:56 | 56.47240 | 11.40689 | 27944 ft | 409 kts | 306° |
| 2026-05-05 05:56 | 56.49121 | 11.36775 | 27943 ft | 406 kts | 306° |
| 2026-05-05 05:56 | 56.50975 | 11.32912 | 27957 ft | 406 kts | 306° |
| 2026-05-05 05:56 | 56.52803 | 11.29095 | 27955 ft | 407 kts | 306° |
| 2026-05-05 05:57 | 56.54661 | 11.25208 | 27955 ft | 408 kts | 306° |
| 2026-05-05 05:57 | 56.56517 | 11.21319 | 27950 ft | 408 kts | 306° |
| 2026-05-05 05:57 | 56.58378 | 11.17415 | 27948 ft | 409 kts | 306° |
| 2026-05-05 05:57 | 56.60238 | 11.13505 | 27945 ft | 409 kts | 306° |
| 2026-05-05 05:58 | 56.62094 | 11.09598 | 27971 ft | 409 kts | 305° |
| 2026-05-05 05:58 | 56.63947 | 11.05693 | 27949 ft | 408 kts | 305° |
| 2026-05-05 05:58 | 56.65792 | 11.01798 | 27944 ft | 406 kts | 305° |
| 2026-05-05 05:58 | 56.67628 | 10.97916 | 27942 ft | 404 kts | 305° |
| 2026-05-05 05:59 | 56.69458 | 10.94040 | 27939 ft | 403 kts | 305° |
| 2026-05-05 05:59 | 56.71276 | 10.90181 | 27940 ft | 401 kts | 305° |
| 2026-05-05 05:59 | 56.73087 | 10.86329 | 27942 ft | 400 kts | 305° |
| 2026-05-05 05:59 | 56.74897 | 10.82475 | 27945 ft | 400 kts | 305° |
| 2026-05-05 06:00 | 56.76704 | 10.78619 | 27946 ft | 400 kts | 305° |
| 2026-05-05 06:00 | 56.78508 | 10.74764 | 27947 ft | 400 kts | 305° |
| 2026-05-05 06:00 | 56.80313 | 10.70900 | 27947 ft | 401 kts | 305° |
| 2026-05-05 06:00 | 56.82123 | 10.67020 | 27947 ft | 401 kts | 305° |
| 2026-05-05 06:01 | 56.83932 | 10.63134 | 27947 ft | 402 kts | 305° |
| 2026-05-05 06:01 | 56.85743 | 10.59239 | 27945 ft | 403 kts | 305° |
| 2026-05-05 06:01 | 56.87556 | 10.55334 | 27952 ft | 403 kts | 304° |
| 2026-05-05 06:01 | 56.89372 | 10.51418 | 27948 ft | 403 kts | 304° |
| 2026-05-05 06:02 | 56.91156 | 10.47562 | 27939 ft | 402 kts | 304° |
| 2026-05-05 06:02 | 56.92965 | 10.43649 | 27938 ft | 402 kts | 304° |
| 2026-05-05 06:02 | 56.94787 | 10.39701 | 27940 ft | 401 kts | 304° |
| 2026-05-05 06:02 | 56.96561 | 10.35848 | 27966 ft | 400 kts | 304° |
| 2026-05-05 06:03 | 56.98352 | 10.31954 | 27958 ft | 399 kts | 304° |
| 2026-05-05 06:03 | 57.00133 | 10.28074 | 27956 ft | 397 kts | 304° |
| 2026-05-05 06:03 | 57.01907 | 10.24205 | 27947 ft | 396 kts | 304° |
| 2026-05-05 06:03 | 57.03672 | 10.20347 | 27953 ft | 394 kts | 304° |
| 2026-05-05 06:04 | 57.05434 | 10.16489 | 27959 ft | 393 kts | 304° |
| 2026-05-05 06:04 | 57.07190 | 10.12638 | 27967 ft | 393 kts | 304° |
| 2026-05-05 06:04 | 57.08946 | 10.08778 | 27968 ft | 393 kts | 304° |
| 2026-05-05 06:04 | 57.10703 | 10.04912 | 27968 ft | 393 kts | 304° |
| 2026-05-05 06:05 | 57.12457 | 10.01046 | 27967 ft | 394 kts | 304° |
| 2026-05-05 06:05 | 57.14213 | 9.97168 | 27970 ft | 394 kts | 304° |
| 2026-05-05 06:05 | 57.15967 | 9.93290 | 27966 ft | 394 kts | 304° |
| 2026-05-05 06:05 | 57.17721 | 9.89406 | 27967 ft | 394 kts | 304° |
| 2026-05-05 06:06 | 57.19476 | 9.85515 | 27960 ft | 392 kts | 304° |
| 2026-05-05 06:06 | 57.21188 | 9.81724 | 27947 ft | 377 kts | 304° |
| 2026-05-05 06:06 | 57.22844 | 9.78054 | 27710 ft | 369 kts | 303° |
| 2026-05-05 06:06 | 57.24464 | 9.74447 | 27425 ft | 361 kts | 303° |
| 2026-05-05 06:07 | 57.26041 | 9.70925 | 27042 ft | 358 kts | 303° |
| 2026-05-05 06:07 | 57.27638 | 9.67351 | 26606 ft | 355 kts | 303° |
| 2026-05-05 06:07 | 57.29201 | 9.63847 | 26250 ft | 352 kts | 303° |
| 2026-05-05 06:07 | 57.30750 | 9.60370 | 25821 ft | 349 kts | 303° |
| 2026-05-05 06:08 | 57.32288 | 9.56915 | 25419 ft | 347 kts | 303° |
| 2026-05-05 06:08 | 57.33816 | 9.53475 | 25001 ft | 344 kts | 303° |
| 2026-05-05 06:08 | 57.35332 | 9.50062 | 24593 ft | 342 kts | 303° |
| 2026-05-05 06:08 | 57.36820 | 9.46705 | 24193 ft | 340 kts | 303° |
| 2026-05-05 06:09 | 57.38317 | 9.43324 | 23780 ft | 339 kts | 303° |
| 2026-05-05 06:09 | 57.39806 | 9.39954 | 23347 ft | 337 kts | 303° |
| 2026-05-05 06:09 | 57.41290 | 9.36594 | 22893 ft | 335 kts | 303° |
| 2026-05-05 06:09 | 57.42761 | 9.33262 | 22474 ft | 332 kts | 303° |
| 2026-05-05 06:10 | 57.44216 | 9.29959 | 22070 ft | 329 kts | 303° |
| 2026-05-05 06:10 | 57.45660 | 9.26677 | 21673 ft | 326 kts | 303° |
| 2026-05-05 06:10 | 57.47127 | 9.23475 | 21276 ft | 325 kts | 305° |
| 2026-05-05 06:10 | 57.48617 | 9.20340 | 20891 ft | 323 kts | 305° |
| 2026-05-05 06:11 | 57.50101 | 9.17237 | 20509 ft | 320 kts | 305° |
| 2026-05-05 06:11 | 57.51572 | 9.14154 | 20144 ft | 318 kts | 305° |
| 2026-05-05 06:11 | 57.53031 | 9.11080 | 19766 ft | 315 kts | 305° |
| 2026-05-05 06:11 | 57.54475 | 9.08028 | 19399 ft | 313 kts | 305° |
| 2026-05-05 06:12 | 57.55907 | 9.04989 | 19053 ft | 311 kts | 305° |
| 2026-05-05 06:12 | 57.57330 | 9.01963 | 18673 ft | 310 kts | 305° |
| 2026-05-05 06:12 | 57.58748 | 8.98943 | 18310 ft | 309 kts | 305° |
| 2026-05-05 06:12 | 57.60156 | 8.95937 | 17892 ft | 307 kts | 305° |
| 2026-05-05 06:13 | 57.61556 | 8.92946 | 17535 ft | 305 kts | 304° |
| 2026-05-05 06:13 | 57.62951 | 8.89965 | 17143 ft | 303 kts | 304° |
| 2026-05-05 06:13 | 57.64316 | 8.87043 | 16766 ft | 301 kts | 304° |
| 2026-05-05 06:13 | 57.65685 | 8.84107 | 16396 ft | 299 kts | 304° |
| 2026-05-05 06:14 | 57.67049 | 8.81201 | 16032 ft | 297 kts | 306° |
| 2026-05-05 06:14 | 57.68675 | 8.78749 | 15676 ft | 306 kts | 321° |
| 2026-05-05 06:14 | 57.70514 | 8.76757 | 15333 ft | 304 kts | 322° |
| 2026-05-05 06:14 | 57.72348 | 8.74806 | 14978 ft | 302 kts | 322° |
| 2026-05-05 06:15 | 57.74166 | 8.72855 | 14637 ft | 300 kts | 321° |
| 2026-05-05 06:15 | 57.75971 | 8.70896 | 14292 ft | 298 kts | 321° |
| 2026-05-05 06:15 | 57.77760 | 8.68936 | 13948 ft | 297 kts | 321° |
| 2026-05-05 06:15 | 57.79535 | 8.66982 | 13584 ft | 295 kts | 321° |
| 2026-05-05 06:16 | 57.81301 | 8.65031 | 13205 ft | 293 kts | 322° |
| 2026-05-05 06:16 | 57.82465 | 8.63746 | 12967 ft | 292 kts | 322° |
| 2026-05-05 06:16 | 57.84098 | 8.61582 | 12598 ft | 283 kts | 311° |
| 2026-05-05 06:16 | 57.85482 | 8.59012 | 12239 ft | 278 kts | 309° |
| 2026-05-05 06:17 | 57.86828 | 8.56409 | 11903 ft | 277 kts | 309° |
| 2026-05-05 06:17 | 57.88175 | 8.53848 | 11564 ft | 275 kts | 310° |
| 2026-05-05 06:17 | 57.89522 | 8.51323 | 11237 ft | 272 kts | 310° |
| 2026-05-05 06:17 | 57.90867 | 8.48835 | 10923 ft | 271 kts | 314° |
| 2026-05-05 06:18 | 57.92504 | 8.47031 | 10630 ft | 278 kts | 336° |
| 2026-05-05 06:18 | 57.94403 | 8.46343 | 10392 ft | 282 kts | 353° |
| 2026-05-05 06:18 | 57.96344 | 8.46534 | 10306 ft | 275 kts | 358° |
| 2026-05-05 06:18 | 57.98226 | 8.46835 | 10174 ft | 268 kts | 358° |
| 2026-05-05 06:19 | 58.00055 | 8.47133 | 10059 ft | 260 kts | 358° |
| 2026-05-05 06:19 | 58.01833 | 8.47412 | 9945 ft | 252 kts | 358° |
| 2026-05-05 06:19 | 58.03571 | 8.47673 | 9721 ft | 249 kts | 358° |
| 2026-05-05 06:19 | 58.05289 | 8.47924 | 9460 ft | 247 kts | 358° |
| 2026-05-05 06:20 | 58.06993 | 8.48169 | 9202 ft | 245 kts | 358° |
| 2026-05-05 06:20 | 58.08682 | 8.48409 | 8938 ft | 243 kts | 358° |
| 2026-05-05 06:20 | 58.10361 | 8.48647 | 8683 ft | 242 kts | 358° |
| 2026-05-05 06:20 | 58.12051 | 8.48884 | 8440 ft | 246 kts | 358° |
| 2026-05-05 06:21 | 58.13781 | 8.49126 | 8188 ft | 252 kts | 359° |
| 2026-05-05 06:21 | 58.15553 | 8.49384 | 7920 ft | 258 kts | 1° |
| 2026-05-05 06:21 | 58.17254 | 8.50544 | 7673 ft | 266 kts | 29° |
| 2026-05-05 06:21 | 58.18748 | 8.52574 | 7432 ft | 264 kts | 31° |
| 2026-05-05 06:22 | 58.20211 | 8.54574 | 7186 ft | 262 kts | 31° |
| 2026-05-05 06:22 | 58.21687 | 8.56593 | 6924 ft | 260 kts | 31° |
| 2026-05-05 06:22 | 58.23162 | 8.58573 | 6668 ft | 258 kts | 27° |
| 2026-05-05 06:22 | 58.24796 | 8.59650 | 6403 ft | 244 kts | 357° |
| 2026-05-05 06:23 | 58.26407 | 8.59052 | 6172 ft | 233 kts | 332° |
| 2026-05-05 06:23 | 58.27719 | 8.57340 | 5910 ft | 227 kts | 311° |
| 2026-05-05 06:23 | 58.28668 | 8.54978 | 5654 ft | 224 kts | 304° |
| 2026-05-05 06:23 | 58.29563 | 8.52538 | 5412 ft | 225 kts | 304° |
| 2026-05-05 06:24 | 58.30457 | 8.50107 | 5207 ft | 224 kts | 304° |
| 2026-05-05 06:24 | 58.31350 | 8.47682 | 5039 ft | 224 kts | 304° |
| 2026-05-05 06:24 | 58.32248 | 8.45250 | 4856 ft | 224 kts | 304° |
| 2026-05-05 06:24 | 58.33142 | 8.42827 | 4731 ft | 222 kts | 304° |
| 2026-05-05 06:25 | 58.34009 | 8.40478 | 4638 ft | 211 kts | 304° |
| 2026-05-05 06:25 | 58.34826 | 8.38264 | 4533 ft | 198 kts | 304° |
| 2026-05-05 06:25 | 58.35593 | 8.36186 | 4474 ft | 188 kts | 305° |
| 2026-05-05 06:25 | 58.36320 | 8.34125 | 4426 ft | 186 kts | 296° |
| 2026-05-05 06:26 | 58.36433 | 8.31734 | 4359 ft | 189 kts | 252° |
| 2026-05-05 06:26 | 58.35648 | 8.29688 | 4160 ft | 199 kts | 231° |
| 2026-05-05 06:26 | 58.34634 | 8.27830 | 3828 ft | 199 kts | 226° |
| 2026-05-05 06:26 | 58.33592 | 8.26150 | 3533 ft | 199 kts | 223° |
| 2026-05-05 06:27 | 58.32488 | 8.24571 | 3226 ft | 198 kts | 220° |
| 2026-05-05 06:27 | 58.30253 | 8.21570 | 2616 ft | 193 kts | 219° |
| 2026-05-05 06:27 | 58.29164 | 8.20130 | 2329 ft | 189 kts | 220° |
| 2026-05-05 06:28 | 58.28095 | 8.18714 | 2032 ft | 184 kts | 219° |
| 2026-05-05 06:28 | 58.27068 | 8.17351 | 1746 ft | 177 kts | 219° |
| 2026-05-05 06:28 | 58.26079 | 8.16037 | 1495 ft | 166 kts | 219° |
| 2026-05-05 06:28 | 58.25157 | 8.14815 | 1214 ft | 157 kts | 220° |
| 2026-05-05 06:29 | 58.24286 | 8.13655 | 995 ft | 151 kts | 219° |
| 2026-05-05 06:29 | 58.23421 | 8.12510 | 784 ft | 153 kts | 217° |
| 2026-05-05 06:29 | 58.22541 | 8.11336 | 525 ft | 157 kts | 216° |
| 2026-05-05 06:29 | 58.21651 | 8.10169 | 264 ft | 152 kts | 217° |
| 2026-05-05 06:30 | 58.20792 | 8.09005 | 59 ft | 149 kts | 213° |
| 2026-05-05 06:30 | 58.20225 | 8.08263 | 56 ft | 74 kts | 215° |
| 2026-05-05 06:30 | 58.19906 | 8.07839 | 56 ft | 45 kts | 214° |
| 2026-05-05 06:30 | 58.19747 | 8.07629 | 55 ft | 20 kts | 215° |
| 2026-05-05 06:31 | 58.19770 | 8.07462 | 57 ft | 16 kts | 333° |
| 2026-05-05 06:31 | 58.19825 | 8.07424 | 54 ft | 0 kts | 342° |
| 2026-05-05 06:31 | 58.19829 | 8.07422 | 57 ft | 3 kts | 342° |
| 2026-05-05 06:32 | 58.19857 | 8.07405 | 55 ft | 5 kts | 342° |
| 2026-05-05 06:32 | 58.19886 | 8.07386 | 54 ft | 4 kts | 341° |
| 2026-05-05 06:32 | 58.19915 | 8.07367 | 54 ft | 4 kts | 341° |
| 2026-05-05 06:32 | 58.19949 | 8.07356 | 54 ft | 6 kts | 356° |
| 2026-05-05 06:33 | 58.19992 | 8.07371 | 50 ft | 7 kts | 26° |
| 2026-05-05 06:33 | 58.20037 | 8.07421 | 53 ft | 8 kts | 30° |
| 2026-05-05 06:33 | 58.20085 | 8.07476 | 53 ft | 7 kts | 32° |
| 2026-05-05 06:33 | 58.20126 | 8.07525 | 56 ft | 7 kts | 32° |
| 2026-05-05 06:34 | 58.20168 | 8.07521 | 57 ft | 4 kts | 319° |
| 2026-05-05 06:34 | 58.20179 | 8.07493 | 57 ft | 1 kts | 306° |
| 2026-05-05 06:34 | 58.20183 | 8.07482 | 57 ft | 0 kts | 305° |